Time;durP1;ratioP1;P1;durP2;ratioP2;P2;SDS_P1;SDS_P2;PMS_P1;PMS_P2;Temp;Humidity;BMP_temperature;BMP_pressure;BME280_temperature;BME280_humidity;BME280_pressure;Samples;Min_cycle;Max_cycle;Signal;HPM_P1;HPM_P2
2021/03/28 00:49:39;;;;;;;4.20;2.90;;;8.10;68.10;;;;;;4834315;29;20455;-87
2021/03/28 00:52:23;;;;;;;9.03;3.00;;;8.00;68.40;;;;;;4908693;29;20460;-87
2021/03/28 00:59:12;;;;;;;4.67;2.80;;;8.00;68.80;;;;;;4827457;29;20496;-87
2021/03/28 01:36:27;;;;;;;7.33;2.33;;;7.70;70.30;;;;;;4874249;23;20503;-87
2021/03/28 01:39:02;;;;;;;5.23;2.50;;;7.80;70.00;;;;;;4989187;28;20479;-87
2021/03/28 01:41:33;;;;;;;9.80;2.90;;;7.80;69.80;;;;;;4981425;28;20443;-87
2021/03/28 01:44:08;;;;;;;3.60;2.40;;;7.90;69.50;;;;;;4997832;28;20420;-87
2021/03/28 01:46:46;;;;;;;5.57;1.97;;;7.90;69.20;;;;;;4990060;28;20502;-87
2021/03/28 01:49:23;;;;;;;6.80;2.20;;;7.90;69.40;;;;;;4982716;28;20481;-87
2021/03/28 01:52:05;;;;;;;3.60;1.90;;;8.00;69.30;;;;;;4977694;28;20452;-87
2021/03/28 01:54:56;;;;;;;4.00;2.50;;;8.00;69.00;;;;;;4978405;28;20440;-87
2021/03/28 01:57:31;;;;;;;3.63;2.07;;;8.00;68.80;;;;;;4962578;28;20485;-87
2021/03/28 02:00:21;;;;;;;4.27;2.30;;;7.90;69.70;;;;;;4965208;29;20456;-87
2021/03/28 02:02:57;;;;;;;5.23;3.17;;;7.80;70.30;;;;;;4965326;29;20449;-87
2021/03/28 02:05:43;;;;;;;7.90;2.80;;;7.70;70.90;;;;;;4976782;29;20440;-86
2021/03/28 02:08:19;;;;;;;8.50;3.00;;;7.60;71.50;;;;;;4959248;29;20468;-87
2021/03/28 02:10:56;;;;;;;7.03;3.47;;;7.60;71.40;;;;;;4950459;28;20442;-87
2021/03/28 02:13:35;;;;;;;6.60;3.30;;;7.80;71.10;;;;;;4936784;29;20449;-87
2021/03/28 02:16:13;;;;;;;9.03;3.53;;;7.90;70.00;;;;;;4946237;28;20495;-86
2021/03/28 02:18:51;;;;;;;3.97;2.10;;;7.90;69.20;;;;;;4966848;28;20887;-87
2021/03/28 02:21:27;;;;;;;7.27;3.20;;;7.90;69.90;;;;;;4975687;28;20960;-88
2021/03/28 02:24:00;;;;;;;5.00;2.70;;;8.00;69.70;;;;;;4975182;28;20454;-86
2021/03/28 02:26:32;;;;;;;6.40;2.77;;;7.90;69.80;;;;;;4969257;28;20484;-87
2021/03/28 02:29:10;;;;;;;6.07;2.33;;;7.70;70.50;;;;;;4955461;29;20458;-87
2021/03/28 02:31:51;;;;;;;3.20;2.00;;;7.60;70.90;;;;;;4955684;29;20451;-86
2021/03/28 02:34:26;;;;;;;7.13;3.00;;;7.50;71.40;;;;;;4959719;28;20486;-87
2021/03/28 02:37:03;;;;;;;4.27;2.30;;;7.50;71.50;;;;;;4954639;29;20521;-87
2021/03/28 02:39:43;;;;;;;5.70;2.83;;;7.40;71.70;;;;;;4956655;29;20453;-86
2021/03/28 02:42:20;;;;;;;5.53;2.50;;;7.30;72.40;;;;;;4968359;28;20435;-87
2021/03/28 02:44:54;;;;;;;5.53;2.33;;;7.30;72.50;;;;;;4973036;28;20455;-87
2021/03/28 02:47:38;;;;;;;7.43;2.37;;;7.30;72.90;;;;;;4975720;28;20478;-87
2021/03/28 02:50:38;;;;;;;9.10;2.50;;;7.30;73.10;;;;;;4974806;28;20459;-87
2021/03/28 02:53:15;;;;;;;8.43;4.07;;;7.30;73.30;;;;;;4968427;28;20966;-87
2021/03/28 02:55:55;;;;;;;5.90;2.60;;;7.40;73.40;;;;;;4974836;28;20514;-85
2021/03/28 02:58:34;;;;;;;6.57;2.57;;;7.50;73.00;;;;;;4973453;28;20491;-87
2021/03/28 03:01:23;;;;;;;5.70;2.33;;;7.50;72.70;;;;;;4974566;28;20451;-87
2021/03/28 03:04:10;;;;;;;8.37;3.20;;;7.70;72.40;;;;;;4971927;28;20464;-87
2021/03/28 03:06:59;;;;;;;6.50;2.77;;;7.80;72.00;;;;;;4974923;28;20483;-86
2021/03/28 03:09:35;;;;;;;5.57;2.37;;;7.80;71.80;;;;;;4982268;28;20977;-87
2021/03/28 03:12:22;;;;;;;10.40;3.20;;;7.60;72.10;;;;;;4987004;28;20471;-86
2021/03/28 03:15:06;;;;;;;6.73;2.97;;;7.60;72.10;;;;;;4970604;29;20449;-87
2021/03/28 03:18:10;;;;;;;3.60;2.77;;;7.50;72.80;;;;;;4957423;29;20493;-87
2021/03/28 03:21:11;;;;;;;9.90;2.83;;;7.40;73.10;;;;;;4955756;29;20449;-87
2021/03/28 03:24:07;;;;;;;6.33;3.07;;;7.30;73.00;;;;;;4937571;29;20457;-87
2021/03/28 03:27:18;;;;;;;7.03;2.93;;;7.20;73.70;;;;;;4936646;29;20466;-87
2021/03/28 03:30:20;;;;;;;8.37;2.67;;;7.20;74.10;;;;;;4940658;28;20959;-87
2021/03/28 03:33:24;;;;;;;6.37;2.70;;;7.20;74.00;;;;;;4978651;28;20455;-87
2021/03/28 03:35:59;;;;;;;3.80;2.33;;;7.30;74.20;;;;;;4987883;28;20451;-88
2021/03/28 03:38:50;;;;;;;6.20;2.57;;;7.20;74.60;;;;;;5000250;28;20466;-87
2021/03/28 03:41:38;;;;;;;8.63;3.07;;;7.20;74.90;;;;;;4997666;28;20456;-87
2021/03/28 03:44:14;;;;;;;4.20;2.23;;;7.30;74.30;;;;;;4999128;28;20478;-86
2021/03/28 03:46:49;;;;;;;3.93;2.20;;;7.30;74.60;;;;;;4981967;28;20459;-87
2021/03/28 03:49:55;;;;;;;9.07;3.03;;;7.20;74.60;;;;;;4979316;28;20436;-87
2021/03/28 03:52:55;;;;;;;8.47;3.47;;;7.20;74.90;;;;;;4951924;28;20616;-86
2021/03/28 03:55:31;;;;;;;5.30;3.63;;;7.30;75.20;;;;;;4958787;29;20484;-88
2021/03/28 03:58:06;;;;;;;6.13;3.10;;;7.10;75.10;;;;;;4959883;29;20494;-86
2021/03/28 04:00:41;;;;;;;8.10;2.90;;;7.10;75.80;;;;;;4966784;28;20467;-87
2021/03/28 04:03:16;;;;;;;8.50;3.00;;;7.00;76.10;;;;;;4977201;28;20439;-87
2021/03/28 04:06:15;;;;;;;5.13;2.67;;;7.00;76.50;;;;;;4976511;28;20468;-87
2021/03/28 04:09:01;;;;;;;7.20;3.27;;;7.00;76.90;;;;;;4970458;28;20453;-86
2021/03/28 04:11:55;;;;;;;7.23;3.20;;;6.90;76.80;;;;;;4957637;28;20452;-87
2021/03/28 04:15:09;;;;;;;8.07;3.03;;;6.90;77.30;;;;;;4957487;29;20828;-87
2021/03/28 04:18:31;;;;;;;8.13;2.97;;;6.90;77.20;;;;;;4958980;28;20856;-86
2021/03/28 04:21:05;;;;;;;9.87;4.70;;;6.90;76.90;;;;;;4976449;28;20444;-86
2021/03/28 04:23:52;;;;;;;7.17;2.90;;;6.90;76.90;;;;;;4977092;28;20492;-87
2021/03/28 04:26:47;;;;;;;6.00;3.10;;;6.80;77.60;;;;;;4976327;28;20479;-87
2021/03/28 04:29:16;;;;;;;3.00;2.60;;;6.70;77.30;;;;;;4977390;28;20443;-87
2021/03/28 04:32:25;;;;;;;9.43;4.30;;;6.70;77.20;;;;;;4976833;28;20460;-87
2021/03/28 04:35:23;;;;;;;5.33;2.67;;;6.70;77.30;;;;;;4938488;29;20468;-87
2021/03/28 04:38:09;;;;;;;7.53;3.90;;;6.70;77.40;;;;;;4938403;29;20481;-87
2021/03/28 04:41:13;;;;;;;4.97;2.73;;;6.70;77.10;;;;;;4938653;29;20438;-87
2021/03/28 04:44:23;;;;;;;4.77;2.43;;;6.70;77.00;;;;;;4968378;28;20457;-87
2021/03/28 04:47:05;;;;;;;6.70;3.30;;;6.60;77.20;;;;;;4984580;28;20555;-87
2021/03/28 04:49:49;;;;;;;7.40;2.80;;;6.60;77.50;;;;;;4985031;28;20439;-87
2021/03/28 04:52:53;;;;;;;4.33;2.90;;;6.50;77.90;;;;;;4990765;28;20438;-87
2021/03/28 04:55:52;;;;;;;7.50;2.87;;;6.50;78.10;;;;;;4960896;29;20466;-86
2021/03/28 04:58:31;;;;;;;5.30;3.33;;;6.50;78.50;;;;;;4960408;28;20484;-87
2021/03/28 05:01:37;;;;;;;6.57;2.73;;;6.60;79.00;;;;;;4960095;29;20461;-86
2021/03/28 05:04:27;;;;;;;7.77;3.77;;;6.60;79.50;;;;;;4969109;28;20539;-86
2021/03/28 05:07:24;;;;;;;9.20;3.30;;;6.60;80.10;;;;;;4987373;28;20462;-87
2021/03/28 05:10:31;;;;;;;7.70;3.33;;;6.50;80.60;;;;;;4982758;28;20444;-86
2021/03/28 05:13:43;;;;;;;8.37;4.00;;;6.40;81.10;;;;;;4975069;28;20456;-87
2021/03/28 05:16:49;;;;;;;8.50;3.80;;;6.30;81.80;;;;;;4959869;28;20484;-87
2021/03/28 05:19:57;;;;;;;9.07;3.47;;;6.30;82.20;;;;;;4961899;28;20491;-87
2021/03/28 05:23:14;;;;;;;6.83;3.23;;;6.20;82.30;;;;;;4968586;28;20540;-87
2021/03/28 05:26:05;;;;;;;8.60;4.17;;;6.20;82.40;;;;;;4909992;29;21049;-87
2021/03/28 05:29:07;;;;;;;6.00;3.73;;;6.20;82.40;;;;;;4971146;28;20518;-86
2021/03/28 05:32:09;;;;;;;6.93;3.93;;;6.20;82.80;;;;;;4975425;28;20510;-86
2021/03/28 05:35:10;;;;;;;7.40;3.80;;;6.20;83.00;;;;;;4956725;28;20441;-87
2021/03/28 05:37:59;;;;;;;6.13;3.00;;;6.20;82.80;;;;;;4954858;29;20488;-87
2021/03/28 05:40:39;;;;;;;7.17;3.67;;;6.20;82.60;;;;;;4941550;29;20473;-87
2021/03/28 05:43:50;;;;;;;6.40;3.63;;;6.30;82.90;;;;;;4970514;28;20443;-87
2021/03/28 05:46:40;;;;;;;4.67;3.20;;;6.20;83.10;;;;;;4979109;28;20443;-87
2021/03/28 05:49:33;;;;;;;10.80;3.70;;;6.30;83.20;;;;;;4976417;28;20839;-87
2021/03/28 05:52:29;;;;;;;9.47;4.10;;;6.30;83.20;;;;;;4977200;28;20455;-87
2021/03/28 05:55:26;;;;;;;8.50;3.23;;;6.40;82.90;;;;;;4940273;29;20430;-87
2021/03/28 05:58:18;;;;;;;9.83;4.70;;;6.40;82.60;;;;;;4944883;28;20982;-87
2021/03/28 06:01:09;;;;;;;6.57;3.40;;;6.40;82.60;;;;;;4979224;28;20983;-87
2021/03/28 06:04:14;;;;;;;7.83;3.60;;;6.30;82.70;;;;;;4971028;28;20953;-88
2021/03/28 06:07:13;;;;;;;5.03;3.00;;;6.30;82.90;;;;;;4985666;28;20463;-87
2021/03/28 06:10:13;;;;;;;6.73;3.30;;;6.30;82.60;;;;;;4977289;28;20437;-87
2021/03/28 06:12:58;;;;;;;10.50;4.00;;;6.30;82.60;;;;;;4967035;28;20460;-87
2021/03/28 06:15:50;;;;;;;10.50;4.33;;;6.40;82.50;;;;;;4966515;29;20812;-87
2021/03/28 06:18:59;;;;;;;8.00;5.70;;;6.40;82.60;;;;;;4965712;28;20514;-88
2021/03/28 06:21:50;;;;;;;6.30;3.50;;;6.30;82.20;;;;;;4989703;28;20444;-88
2021/03/28 06:24:39;;;;;;;5.57;2.90;;;6.30;82.60;;;;;;4972963;28;20519;-88
2021/03/28 06:27:51;;;;;;;10.87;4.03;;;6.50;82.40;;;;;;4974688;28;20471;-88
2021/03/28 06:30:54;;;;;;;8.83;3.90;;;6.50;82.30;;;;;;4970566;28;20459;-87
2021/03/28 06:33:52;;;;;;;5.30;4.00;;;6.50;82.10;;;;;;4957372;29;20455;-87
2021/03/28 06:36:50;;;;;;;5.97;3.80;;;6.60;81.90;;;;;;4952504;29;20511;-87
2021/03/28 06:39:50;;;;;;;6.23;3.73;;;6.60;81.70;;;;;;4960461;29;20500;-87
2021/03/28 06:42:46;;;;;;;7.23;4.17;;;6.60;81.50;;;;;;4958643;28;21145;-87
2021/03/28 06:45:40;;;;;;;7.87;3.73;;;6.70;81.00;;;;;;4958796;29;20460;-87
2021/03/28 06:48:50;;;;;;;4.00;3.27;;;6.80;80.80;;;;;;4950099;29;20456;-84
2021/03/28 06:52:04;;;;;;;5.10;3.57;;;6.90;80.30;;;;;;4956322;28;20450;-85
2021/03/28 06:55:11;;;;;;;5.13;3.00;;;7.00;79.80;;;;;;4984128;28;20462;-85
2021/03/28 06:58:39;;;;;;;5.23;3.47;;;7.10;79.70;;;;;;4979904;28;20483;-86
2021/03/28 07:01:41;;;;;;;8.53;3.93;;;7.30;79.70;;;;;;4980323;28;20439;-85
2021/03/28 07:04:59;;;;;;;9.93;4.40;;;7.40;78.80;;;;;;4952151;29;20464;-85
2021/03/28 07:07:49;;;;;;;7.17;3.47;;;7.50;78.10;;;;;;4966454;29;20469;-85
2021/03/28 07:10:30;;;;;;;5.40;3.40;;;7.70;77.50;;;;;;4966224;29;20444;-85
2021/03/28 07:13:21;;;;;;;5.83;3.33;;;8.00;76.80;;;;;;4966409;29;20444;-85
2021/03/28 07:15:58;;;;;;;7.13;3.43;;;8.30;75.70;;;;;;4966098;29;20527;-85
2021/03/28 07:18:51;;;;;;;7.80;3.53;;;8.50;74.70;;;;;;4991344;28;20470;-83
2021/03/28 07:21:50;;;;;;;5.07;3.43;;;8.80;73.30;;;;;;4975953;28;20441;-85
2021/03/28 07:24:50;;;;;;;5.13;2.70;;;9.00;72.30;;;;;;4963203;28;20958;-84
2021/03/28 07:27:50;;;;;;;15.70;3.10;;;9.20;71.80;;;;;;4957899;29;20453;-85
2021/03/28 07:30:56;;;;;;;3.93;2.63;;;9.40;70.90;;;;;;4954555;29;20464;-89
2021/03/28 07:33:59;;;;;;;7.90;3.53;;;10.00;68.90;;;;;;4970287;28;20791;-88
2021/03/28 07:36:42;;;;;;;8.13;3.63;;;10.60;66.70;;;;;;4962215;29;20480;-89
2021/03/28 07:39:42;;;;;;;4.80;3.30;;;10.90;65.20;;;;;;4977031;29;20465;-89
2021/03/28 07:42:51;;;;;;;6.43;3.60;;;11.40;64.70;;;;;;4980450;28;20444;-89
2021/03/28 07:46:10;;;;;;;6.63;3.20;;;11.60;62.90;;;;;;4962254;29;20443;-89
2021/03/28 07:49:46;;;;;;;;;;;;;;;;;;;;;
2021/03/28 07:52:54;;;;;;;4.90;3.33;;;12.00;61.20;;;;;;4941387;29;20529;-89
2021/03/28 07:55:26;;;;;;;5.80;2.60;;;12.60;59.40;;;;;;4876876;29;20449;-89
2021/03/28 07:58:26;;;;;;;4.50;2.80;;;12.90;59.10;;;;;;4904087;29;20481;-88
2021/03/28 08:01:18;;;;;;;6.63;3.50;;;13.40;58.50;;;;;;4957430;29;20437;-87
2021/03/28 08:04:21;;;;;;;4.13;2.87;;;13.20;57.80;;;;;;4976749;28;20470;-87
2021/03/28 08:07:19;;;;;;;7.53;3.60;;;13.10;57.60;;;;;;4979163;28;20461;-88
2021/03/28 08:17:00;;;;;;;6.80;3.40;;;13.00;57.80;;;;;;4831038;29;20463;-88
2021/03/28 08:19:59;;;;;;;4.20;2.80;;;13.10;57.90;;;;;;4955809;29;20939;-88
2021/03/28 08:29:26;;;;;;;4.30;2.90;;;12.90;58.00;;;;;;4959768;29;20442;-88
2021/03/28 08:32:08;;;;;;;4.03;2.80;;;12.80;58.70;;;;;;4938792;28;21008;-87
2021/03/28 08:38:29;;;;;;;9.67;3.70;;;14.50;57.20;;;;;;4962184;23;20506;-89
2021/03/28 08:41:43;;;;;;;4.63;2.87;;;15.80;54.50;;;;;;4983020;28;20448;-90
2021/03/28 08:45:02;;;;;;;5.60;3.57;;;16.90;52.70;;;;;;4973209;28;20462;-91
2021/03/28 08:47:45;;;;;;;5.60;3.10;;;18.40;50.20;;;;;;4962223;28;20515;-89
2021/03/28 08:50:20;;;;;;;5.83;2.70;;;18.80;47.30;;;;;;4959280;29;20989;-89
2021/03/28 08:53:30;;;;;;;7.43;3.43;;;19.50;47.40;;;;;;4957509;28;21003;-89
2021/03/28 08:56:30;;;;;;;5.00;2.80;;;20.70;45.60;;;;;;4947385;28;20474;-88
2021/03/28 08:59:11;;;;;;;5.80;3.03;;;21.90;43.90;;;;;;4954941;28;20475;-90
2021/03/28 09:01:46;;;;;;;3.60;2.67;;;21.50;42.30;;;;;;4956626;28;20516;-88
2021/03/28 09:04:34;;;;;;;5.20;2.93;;;21.00;42.80;;;;;;4960441;28;20864;-89
2021/03/28 09:07:20;;;;;;;8.20;3.30;;;21.10;42.40;;;;;;4959672;28;20533;-89
2021/03/28 09:10:10;;;;;;;4.70;2.77;;;21.70;42.30;;;;;;4950748;28;20452;-89
2021/03/28 09:19:47;;;;;;;3.80;2.50;;;23.60;39.20;;;;;;4852824;29;20490;-90
2021/03/28 09:25:36;;;;;;;4.87;2.33;;;25.50;37.00;;;;;;4950213;29;20498;-90
2021/03/28 09:28:17;;;;;;;4.43;2.40;;;24.80;36.10;;;;;;4964015;28;20448;-89
2021/03/28 09:30:56;;;;;;;3.10;1.80;;;24.90;35.10;;;;;;4963546;29;20534;-90
2021/03/28 09:34:11;;;;;;;6.30;2.60;;;25.50;32.30;;;;;;4965256;28;20448;-91
2021/03/28 09:43:55;;;;;;;4.13;2.30;;;24.10;32.10;;;;;;4846297;29;20448;-88
2021/03/28 09:47:11;;;;;;;2.93;2.10;;;22.50;34.10;;;;;;4823673;29;20470;-89
2021/03/28 09:54:05;;;;;;;4.40;2.00;;;21.50;34.30;;;;;;4836404;29;20424;-90
2021/03/28 09:57:19;;;;;;;4.77;2.67;;;21.60;35.20;;;;;;4828583;29;20469;-89
2021/03/28 10:03:44;;;;;;;3.30;2.03;;;22.70;33.10;;;;;;4885104;29;20505;-89
2021/03/28 10:06:15;;;;;;;2.93;1.70;;;22.50;33.00;;;;;;4894142;29;20456;-89
2021/03/28 10:09:19;;;;;;;3.60;2.13;;;22.90;34.10;;;;;;4894311;29;20448;-91
2021/03/28 10:11:54;;;;;;;5.17;2.10;;;24.10;33.20;;;;;;4962188;28;20505;-91
2021/03/28 10:14:44;;;;;;;3.30;2.10;;;24.60;31.10;;;;;;4957807;29;20474;-91
2021/03/28 10:20:41;;;;;;;3.37;2.00;;;22.80;31.90;;;;;;4972331;28;20443;-90
2021/03/28 10:23:24;;;;;;;3.57;2.40;;;23.60;31.90;;;;;;4971247;28;20475;-89
2021/03/28 10:26:34;;;;;;;4.90;1.73;;;24.50;31.40;;;;;;4961202;28;20478;-92
2021/03/28 10:29:28;;;;;;;3.13;2.10;;;24.40;31.60;;;;;;4968304;29;20449;-91
2021/03/28 10:32:31;;;;;;;7.13;2.80;;;24.10;31.50;;;;;;4965566;29;20468;-91
2021/03/28 10:35:27;;;;;;;3.83;2.30;;;25.00;31.70;;;;;;4961441;29;20821;-89
2021/03/28 10:38:35;;;;;;;5.57;2.10;;;23.60;30.70;;;;;;4963259;28;20544;-90
2021/03/28 10:41:37;;;;;;;2.40;2.03;;;24.20;32.40;;;;;;4959419;28;20446;-89
2021/03/28 10:45:03;;;;;;;5.60;1.87;;;25.40;30.50;;;;;;4949447;29;20453;-89
2021/03/28 10:48:27;;;;;;;3.93;2.27;;;25.10;29.30;;;;;;4933944;28;20981;-89
2021/03/28 10:51:36;;;;;;;4.57;2.10;;;23.50;31.30;;;;;;4958349;28;20465;-89
2021/03/28 10:54:36;;;;;;;3.77;1.73;;;23.30;31.00;;;;;;4961746;28;20453;-89
2021/03/28 10:57:41;;;;;;;2.93;1.80;;;23.50;30.90;;;;;;4966260;28;20468;-89
2021/03/28 11:00:52;;;;;;;2.93;2.00;;;23.20;30.80;;;;;;4939115;29;20466;-89
2021/03/28 11:03:54;;;;;;;2.43;1.87;;;23.40;31.50;;;;;;4971358;28;20448;-89
2021/03/28 11:06:58;;;;;;;5.70;2.33;;;23.70;31.20;;;;;;4967796;28;20467;-88
2021/03/28 11:10:13;;;;;;;5.67;2.33;;;23.00;31.00;;;;;;4955934;29;20448;-89
2021/03/28 11:13:13;;;;;;;3.37;2.10;;;23.20;31.20;;;;;;4970314;28;20975;-88
2021/03/28 11:16:01;;;;;;;3.77;1.80;;;22.70;31.40;;;;;;4963645;28;20454;-88
2021/03/28 11:19:07;;;;;;;2.87;1.40;;;22.60;31.50;;;;;;4979284;29;20474;-88
2021/03/28 11:21:38;;;;;;;4.17;2.10;;;22.90;32.00;;;;;;4972634;29;20440;-88
2021/03/28 11:24:37;;;;;;;4.07;2.00;;;22.90;30.40;;;;;;4966669;28;20480;-88
2021/03/28 11:27:38;;;;;;;3.00;1.53;;;23.40;31.10;;;;;;4973435;28;20495;-89
2021/03/28 11:30:24;;;;;;;4.63;2.20;;;24.20;30.40;;;;;;4970526;28;20455;-90
2021/03/28 11:33:00;;;;;;;2.70;1.70;;;24.70;30.20;;;;;;4981470;28;20466;-90
2021/03/28 11:35:32;;;;;;;2.90;1.80;;;24.80;29.00;;;;;;4982127;28;20449;-89
2021/03/28 11:38:38;;;;;;;3.83;1.80;;;24.30;29.20;;;;;;4969452;28;21008;-89
2021/03/28 11:41:37;;;;;;;4.33;1.90;;;24.00;29.40;;;;;;4975599;29;20453;-89
2021/03/28 11:44:25;;;;;;;5.00;2.63;;;23.10;29.70;;;;;;4977810;28;20450;-90
2021/03/28 11:47:03;;;;;;;7.30;2.47;;;22.80;31.70;;;;;;4964281;28;20465;-89
2021/03/28 11:49:36;;;;;;;4.87;2.67;;;23.80;31.70;;;;;;4949368;28;20446;-89
2021/03/28 11:52:21;;;;;;;5.60;3.13;;;25.60;30.10;;;;;;4958817;28;20581;-88
2021/03/28 11:55:09;;;;;;;6.00;2.63;;;25.10;29.50;;;;;;4960715;28;20479;-89
2021/03/28 11:57:43;;;;;;;6.13;2.57;;;25.90;29.50;;;;;;4962794;28;20478;-90
2021/03/28 12:00:41;;;;;;;4.00;2.13;;;26.00;29.10;;;;;;4960960;28;20455;-89
2021/03/28 12:03:30;;;;;;;3.60;3.00;;;26.60;28.60;;;;;;4960969;28;20548;-89
2021/03/28 12:06:06;;;;;;;2.97;2.07;;;27.80;28.90;;;;;;4970337;28;20472;-88
2021/03/28 12:08:35;;;;;;;3.20;2.30;;;25.90;28.00;;;;;;4966913;28;20443;-89
2021/03/28 12:11:35;;;;;;;5.77;2.40;;;25.70;29.40;;;;;;4959663;28;20456;-88
2021/03/28 12:14:17;;;;;;;6.80;2.47;;;25.60;29.40;;;;;;4961308;28;20453;-89
2021/03/28 12:17:35;;;;;;;2.90;2.10;;;25.70;29.90;;;;;;4965685;28;20465;-89
2021/03/28 12:20:15;;;;;;;3.90;2.30;;;25.90;28.80;;;;;;4969466;28;20459;-88
2021/03/28 12:22:50;;;;;;;4.03;2.97;;;26.60;28.90;;;;;;4962013;28;20437;-89
2021/03/28 12:25:24;;;;;;;6.63;4.07;;;28.10;28.00;;;;;;4959294;28;20444;-89
2021/03/28 12:28:30;;;;;;;3.20;2.23;;;29.00;27.10;;;;;;4968213;28;20433;-87
2021/03/28 12:31:17;;;;;;;5.10;2.57;;;27.10;26.60;;;;;;4955368;28;20451;-88
2021/03/28 12:34:03;;;;;;;4.67;2.40;;;25.70;27.60;;;;;;4960313;28;20502;-88
2021/03/28 12:36:49;;;;;;;3.90;2.20;;;24.90;29.00;;;;;;4959626;28;20473;-88
2021/03/28 12:39:18;;;;;;;5.93;2.93;;;24.20;29.50;;;;;;4960669;28;21036;-87
2021/03/28 12:42:17;;;;;;;3.60;1.90;;;24.60;29.90;;;;;;4961230;28;20538;-88
2021/03/28 12:44:45;;;;;;;3.60;2.33;;;25.10;28.90;;;;;;4957072;28;20454;-89
2021/03/28 12:47:24;;;;;;;2.73;1.73;;;24.60;29.40;;;;;;4956834;28;20459;-88
2021/03/28 12:49:58;;;;;;;3.37;1.80;;;25.00;29.60;;;;;;4961033;28;20488;-88
2021/03/28 12:52:45;;;;;;;5.47;2.73;;;24.70;29.50;;;;;;4962002;28;20439;-88
2021/03/28 12:55:43;;;;;;;4.07;2.00;;;26.40;29.10;;;;;;4966640;29;20462;-88
2021/03/28 12:58:34;;;;;;;5.03;2.10;;;25.50;28.80;;;;;;4962590;28;20478;-88
2021/03/28 13:01:04;;;;;;;3.50;2.00;;;25.30;28.60;;;;;;4957422;28;20436;-88
2021/03/28 13:03:38;;;;;;;4.00;1.93;;;25.60;29.10;;;;;;4958401;28;20470;-89
2021/03/28 13:06:31;;;;;;;5.13;2.40;;;25.00;29.10;;;;;;4958667;28;20614;-88
2021/03/28 13:09:00;;;;;;;2.97;2.00;;;24.00;29.00;;;;;;4951185;28;20473;-88
2021/03/28 13:11:39;;;;;;;3.70;2.20;;;24.30;30.00;;;;;;4955935;28;20468;-89
2021/03/28 13:14:08;;;;;;;3.97;2.37;;;24.60;29.80;;;;;;4956589;28;20533;-88
2021/03/28 13:16:53;;;;;;;4.70;2.10;;;25.30;29.30;;;;;;4956490;28;21002;-88
2021/03/28 13:19:25;;;;;;;2.73;1.80;;;25.50;29.00;;;;;;4957315;28;20836;-88
2021/03/28 13:21:58;;;;;;;4.13;2.13;;;25.50;28.30;;;;;;4956922;28;20435;-88
2021/03/28 13:24:25;;;;;;;4.07;2.03;;;25.90;29.00;;;;;;4955862;28;20447;-87
2021/03/28 13:27:04;;;;;;;5.77;2.27;;;25.30;29.20;;;;;;4955734;28;20468;-88
2021/03/28 13:29:40;;;;;;;3.40;1.80;;;24.50;29.20;;;;;;4956494;28;20489;-88
2021/03/28 13:35:01;;;;;;;6.90;5.10;;;24.10;31.00;;;;;;4405644;23;20843;-88
2021/03/28 13:37:49;;;;;;;5.57;3.10;;;25.30;29.90;;;;;;4981821;28;20521;-85
2021/03/28 13:40:24;;;;;;;4.27;2.00;;;24.90;29.50;;;;;;4999416;28;20453;-87
2021/03/28 13:42:55;;;;;;;3.23;1.90;;;25.20;29.60;;;;;;4999344;28;20425;-87
2021/03/28 13:45:29;;;;;;;3.53;1.83;;;24.00;29.80;;;;;;4993519;28;20439;-89
2021/03/28 13:48:24;;;;;;;3.13;2.03;;;23.90;30.60;;;;;;4977176;28;20476;-89
2021/03/28 13:50:53;;;;;;;6.10;2.57;;;23.60;30.50;;;;;;4981193;28;20496;-89
2021/03/28 13:53:40;;;;;;;5.63;3.10;;;23.40;31.30;;;;;;4994964;28;20468;-88
2021/03/28 13:56:29;;;;;;;6.00;3.70;;;23.40;31.50;;;;;;4995120;28;20541;-88
2021/03/28 13:59:18;;;;;;;7.37;3.70;;;24.00;30.70;;;;;;4988388;28;20472;-89
2021/03/28 14:01:53;;;;;;;5.17;2.43;;;24.60;30.10;;;;;;4993617;28;20433;-90
2021/03/28 14:04:29;;;;;;;3.00;1.87;;;24.30;29.90;;;;;;4990493;28;20832;-88
2021/03/28 14:07:05;;;;;;;3.20;2.33;;;23.10;30.70;;;;;;4990948;28;20454;-87
2021/03/28 14:09:36;;;;;;;5.97;2.80;;;21.70;32.40;;;;;;4992719;28;20446;-89
2021/03/28 14:12:17;;;;;;;2.90;1.90;;;21.10;32.80;;;;;;4997050;28;20443;-88
2021/03/28 14:14:45;;;;;;;5.13;2.00;;;22.00;32.70;;;;;;5004096;28;20432;-88
2021/03/28 14:17:22;;;;;;;3.63;1.70;;;22.80;32.10;;;;;;5004651;28;20455;-88
2021/03/28 14:19:51;;;;;;;4.60;2.20;;;22.40;31.40;;;;;;4995671;28;20491;-92
2021/03/28 14:22:41;;;;;;;3.83;1.73;;;22.30;32.10;;;;;;5005931;28;20498;-90
2021/03/28 14:25:14;;;;;;;3.40;1.60;;;21.70;32.90;;;;;;5008027;28;20421;-90
2021/03/28 14:27:42;;;;;;;4.23;2.17;;;20.90;33.60;;;;;;5004470;28;20446;-90
2021/03/28 14:30:16;;;;;;;4.37;2.20;;;20.60;33.90;;;;;;4992397;28;20439;-88
2021/03/28 14:32:45;;;;;;;1.93;1.50;;;20.60;34.00;;;;;;4998031;28;20434;-90
2021/03/28 14:35:30;;;;;;;2.93;1.73;;;20.40;34.20;;;;;;4992831;28;20455;-91
2021/03/28 14:38:32;;;;;;;4.53;1.83;;;20.40;34.50;;;;;;5002442;28;20444;-90
2021/03/28 14:41:20;;;;;;;4.03;2.00;;;20.40;34.00;;;;;;5013706;28;20442;-91
2021/03/28 14:44:05;;;;;;;2.70;1.50;;;20.40;34.40;;;;;;4990982;28;20439;-91
2021/03/28 14:46:45;;;;;;;2.30;1.57;;;20.50;34.00;;;;;;4989272;28;20508;-90
2021/03/28 14:49:23;;;;;;;4.57;2.43;;;20.20;34.00;;;;;;4984523;28;20447;-90
2021/03/28 14:52:05;;;;;;;3.83;2.33;;;20.30;34.70;;;;;;4990365;28;20475;-89
2021/03/28 14:54:37;;;;;;;5.70;2.40;;;20.10;33.90;;;;;;4987169;28;20476;-90
2021/03/28 14:57:09;;;;;;;3.00;1.97;;;19.90;34.80;;;;;;4983141;28;20502;-90
2021/03/28 14:59:50;;;;;;;3.90;1.80;;;20.00;34.60;;;;;;4985408;28;20475;-91
2021/03/28 15:02:33;;;;;;;2.83;1.90;;;20.20;34.40;;;;;;4989941;28;20463;-89
2021/03/28 15:05:21;;;;;;;3.97;2.10;;;20.00;34.90;;;;;;4987679;28;20439;-90
2021/03/28 15:07:55;;;;;;;3.20;2.00;;;20.00;34.60;;;;;;4987364;28;20467;-89
2021/03/28 15:10:29;;;;;;;4.40;1.90;;;20.40;34.60;;;;;;4990496;28;20453;-89
2021/03/28 15:13:08;;;;;;;5.90;2.33;;;20.80;34.50;;;;;;4990260;28;20442;-90
2021/03/28 15:15:43;;;;;;;4.33;2.80;;;21.40;34.40;;;;;;4993919;28;20480;-91
2021/03/28 15:18:35;;;;;;;4.07;1.87;;;22.00;33.30;;;;;;5000296;28;21059;-90
2021/03/28 15:21:06;;;;;;;3.73;2.47;;;22.30;32.20;;;;;;4987327;28;20443;-89
2021/03/28 15:23:36;;;;;;;7.53;2.83;;;22.60;33.20;;;;;;4994625;28;20443;-87
2021/03/28 15:26:34;;;;;;;4.50;3.00;;;23.10;34.30;;;;;;4993254;28;20565;-88
2021/03/28 15:29:11;;;;;;;3.80;2.10;;;23.40;34.50;;;;;;4992372;28;20428;-88
2021/03/28 15:31:57;;;;;;;3.40;1.90;;;23.20;34.50;;;;;;4993851;28;20462;-88
2021/03/28 15:34:34;;;;;;;3.10;2.07;;;23.40;35.50;;;;;;4999050;28;20462;-87
2021/03/28 15:37:13;;;;;;;5.10;2.63;;;23.50;34.30;;;;;;5003338;28;20446;-89
2021/03/28 15:40:04;;;;;;;6.70;3.33;;;23.40;34.60;;;;;;5002609;28;20474;-87
2021/03/28 15:42:37;;;;;;;5.33;2.70;;;23.30;34.90;;;;;;4998760;28;20433;-88
2021/03/28 15:45:27;;;;;;;3.73;1.90;;;22.90;34.90;;;;;;5002529;28;20425;-87
2021/03/28 15:48:04;;;;;;;5.07;2.30;;;22.50;35.60;;;;;;5013855;28;20462;-87
2021/03/28 15:50:51;;;;;;;5.57;2.53;;;22.20;35.60;;;;;;4997015;28;20534;-87
2021/03/28 15:53:34;;;;;;;3.90;2.50;;;21.90;36.10;;;;;;4989077;28;20446;-86
2021/03/28 15:56:13;;;;;;;4.37;2.70;;;21.50;36.40;;;;;;4995355;28;20456;-87
2021/03/28 15:58:55;;;;;;;6.70;2.60;;;21.00;37.10;;;;;;4991072;28;20532;-87
2021/03/28 16:01:57;;;;;;;6.50;3.70;;;20.60;37.60;;;;;;4994308;28;20840;-87
2021/03/28 16:04:37;;;;;;;3.47;2.00;;;20.20;38.10;;;;;;4991934;28;20508;-89
2021/03/28 16:07:10;;;;;;;5.13;2.10;;;20.00;38.60;;;;;;4994526;28;20456;-88
2021/03/28 16:10:05;;;;;;;6.80;2.40;;;19.80;38.60;;;;;;4993070;28;20467;-88
2021/03/28 16:12:52;;;;;;;3.40;2.23;;;19.60;38.80;;;;;;4990923;28;20475;-87
2021/03/28 16:15:29;;;;;;;4.13;2.63;;;19.40;38.80;;;;;;4992795;28;20495;-87
2021/03/28 16:18:21;;;;;;;4.80;2.43;;;19.20;38.60;;;;;;4991011;28;20463;-87
2021/03/28 16:21:10;;;;;;;6.50;2.10;;;19.10;38.90;;;;;;4990006;28;20452;-86
2021/03/28 16:24:15;;;;;;;4.03;2.10;;;19.00;39.20;;;;;;4983857;28;20472;-87
2021/03/28 16:27:02;;;;;;;4.97;2.50;;;18.80;39.20;;;;;;4981893;28;20466;-88
2021/03/28 16:29:46;;;;;;;3.70;2.43;;;18.60;39.50;;;;;;5004373;28;20450;-87
2021/03/28 16:33:00;;;;;;;6.40;3.30;;;18.40;39.60;;;;;;4990313;28;20443;-86
2021/03/28 16:35:54;;;;;;;4.70;3.30;;;18.40;39.80;;;;;;4989563;28;20913;-88
2021/03/28 16:38:56;;;;;;;3.30;2.60;;;18.20;39.70;;;;;;4991236;28;20477;-86
2021/03/28 16:41:42;;;;;;;5.53;3.27;;;18.10;40.00;;;;;;4987990;28;20473;-88
2021/03/28 16:44:16;;;;;;;8.23;2.60;;;17.90;40.20;;;;;;4989345;28;20454;-87
2021/03/28 16:46:51;;;;;;;9.07;3.63;;;17.80;40.50;;;;;;4988681;28;20495;-86
2021/03/28 16:49:26;;;;;;;10.10;2.80;;;17.70;40.90;;;;;;5001715;28;20508;-89
2021/03/28 16:52:02;;;;;;;4.63;2.63;;;17.50;40.80;;;;;;4996464;28;20454;-87
2021/03/28 16:54:31;;;;;;;4.73;2.03;;;17.40;41.60;;;;;;5002756;28;20447;-86
2021/03/28 16:57:12;;;;;;;5.27;3.10;;;17.30;41.00;;;;;;5006552;28;20471;-87
2021/03/28 16:59:43;;;;;;;3.70;2.17;;;17.20;41.30;;;;;;4990401;28;20510;-87